Time;durP1;ratioP1;P1;durP2;ratioP2;P2;SDS_P1;SDS_P2;PMS_P1;PMS_P2;Temp;Humidity;BMP_temperature;BMP_pressure;BME280_temperature;BME280_humidity;BME280_pressure;Samples;Min_cycle;Max_cycle;Signal;HPM_P1;HPM_P2
2021/09/10 00:01:09;;;;;;;4.25;3.92;;;;;;;13.98;79.05;98512.72;5071435;28;20044;-74
2021/09/10 00:03:35;;;;;;;4.53;4.03;;;;;;;13.97;78.98;98500.28;5071267;28;20468;-73
2021/09/10 00:06:01;;;;;;;4.70;4.18;;;;;;;13.92;79.19;98494.59;5071450;28;20080;-74
2021/09/10 00:08:27;;;;;;;4.68;4.13;;;;;;;13.90;78.96;98504.66;5054602;28;20127;-74
2021/09/10 00:10:53;;;;;;;4.78;4.05;;;;;;;13.82;79.37;98508.97;5072520;28;20052;-74
2021/09/10 00:13:19;;;;;;;4.60;4.20;;;;;;;13.78;78.97;98493.38;5071030;28;20040;-74
2021/09/10 00:15:45;;;;;;;4.85;3.90;;;;;;;13.77;79.52;98505.97;5054525;28;20484;-74
2021/09/10 00:18:10;;;;;;;4.63;3.92;;;;;;;13.74;79.10;98516.19;5070878;28;20048;-74
2021/09/10 00:20:36;;;;;;;4.55;4.10;;;;;;;13.78;78.97;98518.38;5054286;28;20048;-74
2021/09/10 00:23:02;;;;;;;7.68;4.57;;;;;;;13.85;78.58;98519.41;5071117;28;20048;-74
2021/09/10 00:25:28;;;;;;;4.20;3.80;;;;;;;13.85;78.83;98522.09;5054474;28;20123;-74
2021/09/10 00:27:54;;;;;;;4.85;4.40;;;;;;;13.92;78.44;98513.38;5054513;28;20048;-74
2021/09/10 00:30:20;;;;;;;4.78;4.30;;;;;;;13.92;78.42;98518.75;5054637;28;20044;-74
2021/09/10 00:32:46;;;;;;;5.35;4.50;;;;;;;13.76;78.37;98501.56;5054663;28;20495;-73
2021/09/10 00:35:12;;;;;;;5.63;4.50;;;;;;;13.85;78.13;98508.66;5071373;28;20056;-74
2021/09/10 00:37:38;;;;;;;4.60;4.20;;;;;;;13.78;77.95;98496.88;5054442;28;20040;-74
2021/09/10 00:40:05;;;;;;;4.45;4.05;;;;;;;13.76;78.32;98504.25;5071040;28;20048;-74
2021/09/10 00:42:31;;;;;;;4.50;4.10;;;;;;;13.87;78.30;98513.03;5037650;28;20098;-74
2021/09/10 00:44:57;;;;;;;5.50;4.88;;;;;;;13.75;78.37;98507.13;5070857;28;20484;-74
2021/09/10 00:47:23;;;;;;;5.80;4.55;;;;;;;13.78;78.10;98502.25;5054965;28;20154;-74
2021/09/10 00:49:49;;;;;;;4.43;4.00;;;;;;;13.80;78.37;98516.38;5054375;28;20178;-73
2021/09/10 00:52:15;;;;;;;4.70;4.30;;;;;;;13.80;78.53;98510.13;5054344;28;20051;-73
2021/09/10 00:54:41;;;;;;;5.22;4.35;;;;;;;13.73;78.54;98499.25;5054326;28;20040;-73
2021/09/10 00:57:07;;;;;;;5.55;4.18;;;;;;;13.81;78.71;98512.69;5070818;28;20506;-75
2021/09/10 00:59:33;;;;;;;6.70;4.28;;;;;;;13.78;78.58;98510.31;5020878;28;20534;-73
2021/09/10 01:01:59;;;;;;;6.40;4.15;;;;;;;13.72;78.52;98508.28;5037693;28;20143;-75
2021/09/10 01:04:26;;;;;;;6.78;4.43;;;;;;;13.77;78.63;98522.06;5070729;28;20549;-74
2021/09/10 01:06:53;;;;;;;4.95;3.88;;;;;;;13.72;78.37;98513.66;5072088;28;20044;-74
2021/09/10 01:09:19;;;;;;;4.80;4.35;;;;;;;13.81;78.45;98523.44;5040198;28;20095;-74
2021/09/10 01:11:45;;;;;;;8.27;4.57;;;;;;;13.82;78.15;98519.72;5041117;28;20396;-73
2021/09/10 01:14:12;;;;;;;6.35;4.43;;;;;;;13.87;78.25;98518.41;5041148;28;20071;-74
2021/09/10 01:16:38;;;;;;;4.72;4.32;;;;;;;13.84;78.23;98509.69;5057946;28;20131;-73
2021/09/10 01:19:04;;;;;;;5.30;4.47;;;;;;;13.77;78.70;98522.06;5057947;28;20044;-73
2021/09/10 01:21:30;;;;;;;5.00;4.32;;;;;;;13.69;79.00;98527.44;5075720;28;20518;-73
2021/09/10 01:23:55;;;;;;;4.05;3.65;;;;;;;13.58;78.39;98514.28;5057771;28;20057;-74
2021/09/10 01:26:21;;;;;;;8.95;3.67;;;;;;;13.48;78.77;98527.84;5057511;28;20063;-73
2021/09/10 01:28:48;;;;;;;5.78;3.40;;;;;;;13.28;78.19;98508.47;5074076;28;20048;-73
2021/09/10 01:31:13;;;;;;;3.13;2.83;;;;;;;13.28;77.40;98521.03;5057209;28;20040;-74
2021/09/10 01:33:39;;;;;;;3.00;2.70;;;;;;;13.15;77.20;98534.84;5024383;28;20537;-73
2021/09/10 01:36:08;;;;;;;2.97;2.78;;;;;;;13.12;78.04;98544.03;5057501;28;20036;-73
2021/09/10 01:38:33;;;;;;;3.80;3.27;;;;;;;12.96;79.73;98543.94;5057657;28;20037;-74
2021/09/10 01:40:59;;;;;;;2.53;2.15;;;;;;;13.02;78.62;98555.91;5056859;28;20078;-73
2021/09/10 01:43:25;;;;;;;2.90;2.47;;;;;;;12.86;78.46;98565.53;5056993;28;20121;-73
2021/09/10 01:45:51;;;;;;;4.68;2.67;;;;;;;12.80;78.65;98550.03;5057022;28;20046;-73
2021/09/10 01:48:17;;;;;;;3.45;2.45;;;;;;;12.75;78.70;98567.59;5073518;28;20049;-73
2021/09/10 01:50:43;;;;;;;5.18;2.00;;;;;;;12.64;78.74;98557.97;5073560;28;20123;-73
2021/09/10 01:53:09;;;;;;;2.33;2.10;;;;;;;12.54;78.75;98544.63;5073706;28;20552;-73
2021/09/10 01:55:35;;;;;;;2.10;2.00;;;;;;;12.46;79.08;98557.13;5056887;28;20043;-74
2021/09/10 01:58:01;;;;;;;4.18;1.83;;;;;;;12.38;79.19;98549.88;5073575;28;20056;-73
2021/09/10 02:00:27;;;;;;;2.08;1.88;;;;;;;12.35;79.29;98553.69;5073539;28;20051;-74
2021/09/10 02:02:53;;;;;;;1.70;1.60;;;;;;;12.14;80.07;98537.91;5073615;28;20139;-73
2021/09/10 02:05:18;;;;;;;4.72;1.90;;;;;;;12.32;80.06;98562.03;5073306;28;20136;-74
2021/09/10 02:07:44;;;;;;;2.97;1.80;;;;;;;12.30;79.40;98555.16;5073418;28;20051;-73
2021/09/10 02:10:11;;;;;;;4.53;1.90;;;;;;;12.28;79.58;98549.94;5040065;28;20036;-73
2021/09/10 02:12:38;;;;;;;2.25;1.70;;;;;;;12.25;79.48;98560.94;5023546;28;20083;-73
2021/09/10 02:15:05;;;;;;;2.35;1.60;;;;;;;12.28;78.87;98552.59;5073811;28;20414;-72
2021/09/10 02:17:31;;;;;;;2.55;1.80;;;;;;;12.13;78.58;98532.69;5073100;28;20049;-73
2021/09/10 02:19:57;;;;;;;1.60;1.50;;;;;;;12.20;78.68;98552.53;5056118;28;20485;-72
2021/09/10 02:22:23;;;;;;;1.98;1.52;;;;;;;12.22;78.65;98550.53;5039752;28;20586;-73
2021/09/10 02:24:48;;;;;;;5.90;1.67;;;;;;;12.23;78.39;98562.97;5055521;28;20060;-73
2021/09/10 02:27:15;;;;;;;2.78;1.63;;;;;;;12.28;78.36;98555.28;5072636;28;20051;-72
2021/09/10 02:29:42;;;;;;;3.30;2.83;;;;;;;12.41;77.93;98549.53;5072486;28;20045;-72
2021/09/10 02:32:07;;;;;;;1.50;1.40;;;;;;;12.60;77.93;98551.25;5072628;28;20502;-73
2021/09/10 02:34:33;;;;;;;1.75;1.65;;;;;;;12.76;77.14;98554.03;5055949;28;20087;-73
2021/09/10 02:36:59;;;;;;;1.80;1.60;;;;;;;12.68;77.13;98545.94;5038929;28;20044;-73
2021/09/10 02:39:25;;;;;;;1.70;1.60;;;;;;;12.71;76.80;98548.28;5055952;28;20484;-72
2021/09/10 02:41:51;;;;;;;2.15;1.60;;;;;;;12.89;76.76;98575.91;5072470;28;20055;-72
2021/09/10 02:44:17;;;;;;;2.28;1.65;;;;;;;12.80;77.15;98571.50;5055387;28;20048;-72
2021/09/10 02:46:43;;;;;;;2.55;1.73;;;;;;;12.83;77.29;98578.41;5055469;28;20127;-73
2021/09/10 02:49:08;;;;;;;2.30;1.70;;;;;;;12.85;77.49;98579.06;5038930;28;20051;-72
2021/09/10 02:51:34;;;;;;;4.80;2.00;;;;;;;12.78;77.35;98568.13;5039046;28;20040;-73
2021/09/10 02:54:01;;;;;;;3.33;2.05;;;;;;;12.92;77.76;98601.59;5072445;28;20052;-73
2021/09/10 02:56:26;;;;;;;3.05;2.00;;;;;;;13.10;77.60;98593.50;5072718;28;20041;-73
2021/09/10 02:58:52;;;;;;;4.25;2.03;;;;;;;13.09;77.56;98570.38;5071861;28;20152;-73
2021/09/10 03:01:19;;;;;;;2.75;2.28;;;;;;;13.21;77.19;98574.47;5072649;28;20047;-73
2021/09/10 03:03:45;;;;;;;2.83;2.00;;;;;;;13.29;77.33;98581.75;5055484;28;20467;-72
2021/09/10 03:06:12;;;;;;;3.70;2.70;;;;;;;13.25;77.46;98586.59;5073145;28;20093;-72
2021/09/10 03:08:38;;;;;;;2.70;2.50;;;;;;;13.38;77.36;98596.91;5071785;28;20053;-73
2021/09/10 03:11:04;;;;;;;3.08;2.40;;;;;;;13.35;77.32;98592.72;5038918;28;20127;-73
2021/09/10 03:13:30;;;;;;;5.00;3.20;;;;;;;13.50;76.87;98609.06;5071886;28;20078;-73
2021/09/10 03:15:56;;;;;;;3.70;3.40;;;;;;;13.47;77.45;98600.50;5071981;28;20080;-73
2021/09/10 03:18:21;;;;;;;6.03;3.67;;;;;;;13.60;77.40;98603.56;5038641;28;20114;-73
2021/09/10 03:20:47;;;;;;;5.70;3.42;;;;;;;13.62;77.56;98609.63;5054744;28;20071;-73
2021/09/10 03:23:13;;;;;;;4.10;3.58;;;;;;;13.77;77.53;98617.94;5055476;28;20044;-71
2021/09/10 03:25:39;;;;;;;5.70;4.18;;;;;;;13.81;77.62;98619.28;5071684;28;20082;-73
2021/09/10 03:28:05;;;;;;;5.47;3.55;;;;;;;13.91;77.74;98613.78;5054952;28;20048;-73
2021/09/10 03:30:31;;;;;;;5.05;4.25;;;;;;;14.04;77.56;98616.88;5037934;28;20045;-73
2021/09/10 03:32:57;;;;;;;5.60;4.05;;;;;;;14.30;76.77;98623.00;5037946;28;20143;-73
2021/09/10 03:35:22;;;;;;;7.72;4.50;;;;;;;14.24;76.65;98620.94;5021751;28;20083;-73
2021/09/10 03:37:48;;;;;;;6.60;4.25;;;;;;;14.24;76.81;98626.31;5071259;28;20052;-73
2021/09/10 03:40:14;;;;;;;7.25;4.35;;;;;;;14.28;76.70;98626.84;5071431;28;20040;-74
2021/09/10 03:42:40;;;;;;;9.65;4.70;;;;;;;14.26;76.67;98628.88;5071398;28;20044;-73
2021/09/10 03:45:07;;;;;;;5.15;4.65;;;;;;;14.39;76.98;98618.47;5054361;28;20101;-74
2021/09/10 03:47:33;;;;;;;6.30;5.20;;;;;;;14.66;75.74;98614.66;5054296;28;20044;-74
2021/09/10 03:49:58;;;;;;;7.65;5.45;;;;;;;14.56;75.92;98600.56;5054618;28;20403;-73
2021/09/10 03:52:24;;;;;;;4.63;4.18;;;;;;;14.71;75.33;98612.34;5054621;28;20080;-74
2021/09/10 03:54:50;;;;;;;5.20;4.38;;;;;;;14.76;75.43;98609.97;5072536;28;20055;-73
2021/09/10 03:57:16;;;;;;;4.72;4.32;;;;;;;14.90;74.84;98610.34;5054471;28;20132;-73
2021/09/10 03:59:42;;;;;;;4.75;4.35;;;;;;;14.73;74.70;98615.69;5037973;28;20484;-74
2021/09/10 04:02:10;;;;;;;6.57;4.50;;;;;;;14.62;75.33;98621.41;5071206;28;20036;-73
2021/09/10 04:04:36;;;;;;;5.63;4.30;;;;;;;14.69;75.46;98619.72;5037674;28;20098;-73
2021/09/10 04:07:02;;;;;;;4.50;4.10;;;;;;;14.95;75.19;98619.56;5054534;28;20063;-74
2021/09/10 04:09:28;;;;;;;5.97;4.00;;;;;;;15.00;74.46;98621.75;5071413;28;20093;-74
2021/09/10 04:11:55;;;;;;;3.53;3.22;;;;;;;14.93;73.32;98631.50;5071416;28;20072;-74
2021/09/10 04:14:21;;;;;;;4.28;3.60;;;;;;;14.92;74.10;98621.75;5072322;28;20051;-74
2021/09/10 04:16:47;;;;;;;5.25;3.70;;;;;;;15.02;73.21;98625.13;5071163;28;20139;-73
2021/09/10 04:19:13;;;;;;;5.18;3.53;;;;;;;15.15;73.35;98614.69;5071213;28;20049;-73
2021/09/10 04:21:38;;;;;;;6.03;3.42;;;;;;;15.44;72.58;98619.53;5071503;28;20044;-73
2021/09/10 04:24:04;;;;;;;4.63;3.50;;;;;;;15.59;71.42;98626.91;5071527;28;20053;-73
2021/09/10 04:26:30;;;;;;;3.45;3.15;;;;;;;15.54;70.92;98622.03;5071211;28;20045;-74
2021/09/10 04:28:56;;;;;;;6.72;3.35;;;;;;;15.77;70.63;98628.41;5054382;28;20094;-73
2021/09/10 04:31:22;;;;;;;3.45;3.15;;;;;;;15.97;70.29;98630.69;5054430;28;20079;-72
2021/09/10 04:33:48;;;;;;;3.25;2.92;;;;;;;15.94;68.41;98644.50;5054137;28;20149;-74
2021/09/10 04:36:14;;;;;;;2.78;2.58;;;;;;;15.77;67.85;98632.94;5071002;28;20476;-73
2021/09/10 04:38:40;;;;;;;3.20;2.90;;;;;;;15.93;68.02;98638.28;5072162;28;20074;-73
2021/09/10 04:41:06;;;;;;;2.90;2.70;;;;;;;15.90;67.29;98635.09;5070965;28;20052;-74
2021/09/10 04:43:32;;;;;;;4.32;3.10;;;;;;;15.88;67.25;98639.81;5040806;28;20403;-74
2021/09/10 04:45:58;;;;;;;4.50;2.50;;;;;;;15.74;67.33;98641.38;5041554;28;20051;-73
2021/09/10 04:48:24;;;;;;;2.33;2.13;;;;;;;15.61;66.13;98663.44;5058220;28;20037;-74
2021/09/10 04:50:50;;;;;;;2.60;2.20;;;;;;;15.34;66.71;98644.94;5074746;28;20048;-74
2021/09/10 04:53:15;;;;;;;2.35;2.20;;;;;;;15.40;66.93;98655.06;5074822;28;20329;-74
2021/09/10 04:55:41;;;;;;;4.65;1.95;;;;;;;15.38;66.20;98646.28;5058194;28;20055;-74
2021/09/10 04:58:07;;;;;;;4.13;1.60;;;;;;;15.54;64.47;98654.38;5074478;28;20439;-74
2021/09/10 05:00:33;;;;;;;1.77;1.67;;;;;;;15.57;63.51;98667.50;5074610;28;20037;-75
2021/09/10 05:02:59;;;;;;;2.10;1.98;;;;;;;15.61;64.19;98651.81;5058212;28;20052;-73
2021/09/10 05:05:25;;;;;;;4.50;2.10;;;;;;;15.72;64.72;98655.03;5074326;28;20491;-74
2021/09/10 05:07:51;;;;;;;8.90;1.83;;;;;;;15.68;62.98;98661.78;5074150;28;20048;-73
2021/09/10 05:10:17;;;;;;;2.10;1.90;;;;;;;15.84;62.70;98660.06;5057330;28;20047;-74
2021/09/10 05:12:44;;;;;;;7.07;1.83;;;;;;;15.72;61.66;98665.81;5073982;28;20037;-74
2021/09/10 05:15:10;;;;;;;2.38;1.60;;;;;;;15.76;61.54;98655.53;5073837;28;20036;-74
2021/09/10 05:17:36;;;;;;;1.50;1.40;;;;;;;15.40;58.08;98676.59;5057287;28;20051;-75
2021/09/10 05:20:03;;;;;;;5.55;1.50;;;;;;;15.25;58.57;98642.28;5074123;28;20352;-74
2021/09/10 05:22:29;;;;;;;1.77;1.40;;;;;;;15.19;58.37;98658.25;5074218;28;20036;-74
2021/09/10 05:24:55;;;;;;;2.25;1.35;;;;;;;15.07;58.59;98666.66;5057137;28;20044;-74
2021/09/10 05:27:21;;;;;;;4.90;1.60;;;;;;;15.05;58.44;98667.88;5057488;28;20090;-74
2021/09/10 05:29:47;;;;;;;1.42;1.33;;;;;;;14.92;59.80;98662.13;5073742;28;20048;-74
2021/09/10 05:32:13;;;;;;;3.90;1.55;;;;;;;15.07;59.49;98672.06;5073823;28;20582;-74
2021/09/10 05:34:39;;;;;;;4.40;1.80;;;;;;;14.98;59.15;98659.63;5073729;28;20194;-74
2021/09/10 05:37:05;;;;;;;4.80;1.20;;;;;;;15.33;58.88;98672.91;5074052;28;20044;-73
2021/09/10 05:39:31;;;;;;;5.28;1.45;;;;;;;15.52;55.55;98680.63;5057616;28;20467;-74
2021/09/10 05:41:56;;;;;;;1.50;1.10;;;;;;;15.67;55.87;98681.63;5057229;28;20060;-74
2021/09/10 05:44:22;;;;;;;2.35;1.30;;;;;;;15.68;54.66;98672.56;5056709;28;20044;-73
2021/09/10 05:46:48;;;;;;;1.02;1.00;;;;;;;15.61;53.82;98666.13;5073566;28;20048;-74
2021/09/10 05:49:14;;;;;;;1.50;1.40;;;;;;;15.49;53.56;98678.25;5073669;28;20044;-74
2021/09/10 05:51:40;;;;;;;1.25;1.00;;;;;;;15.50;53.91;98682.66;5056508;28;20162;-74
2021/09/10 05:54:06;;;;;;;1.02;1.00;;;;;;;15.43;54.09;98703.19;5072632;28;20140;-75
2021/09/10 05:56:32;;;;;;;4.32;1.00;;;;;;;15.36;54.36;98680.66;5073296;28;20044;-74
2021/09/10 05:58:57;;;;;;;1.10;1.10;;;;;;;15.43;54.95;98684.34;5056797;28;20059;-74
2021/09/10 06:01:24;;;;;;;1.48;1.38;;;;;;;15.62;55.34;98675.91;5072952;28;20090;-74
2021/09/10 06:03:50;;;;;;;1.20;1.00;;;;;;;15.79;54.71;98661.38;5073264;28;20086;-74
2021/09/10 06:06:16;;;;;;;1.60;1.02;;;;;;;15.93;53.53;98670.63;5056350;28;20067;-73
2021/09/10 06:08:42;;;;;;;3.97;1.27;;;;;;;16.00;53.76;98668.09;5073424;28;20079;-74
2021/09/10 06:11:08;;;;;;;2.75;1.40;;;;;;;16.09;54.78;98664.31;5056422;28;20036;-74
2021/09/10 06:13:33;;;;;;;2.28;1.40;;;;;;;16.54;55.12;98664.63;5073084;28;20047;-73
2021/09/10 06:15:59;;;;;;;1.30;1.23;;;;;;;16.72;53.19;98663.31;5073018;28;20045;-74
2021/09/10 06:18:25;;;;;;;2.13;1.10;;;;;;;16.80;52.21;98661.63;5056395;28;20098;-74
2021/09/10 06:20:51;;;;;;;9.65;1.85;;;;;;;16.65;51.98;98651.56;5072684;28;20075;-74
2021/09/10 06:23:17;;;;;;;3.97;1.40;;;;;;;16.43;52.12;98637.03;5056018;28;20541;-74
2021/09/10 06:25:43;;;;;;;3.85;1.35;;;;;;;16.84;52.37;98652.16;5039433;28;20150;-74
2021/09/10 06:28:09;;;;;;;2.58;1.25;;;;;;;16.79;51.42;98652.69;5072851;28;20135;-74
2021/09/10 06:30:35;;;;;;;1.23;1.15;;;;;;;17.04;51.17;98650.66;5072728;28;20044;-73
2021/09/10 06:33:01;;;;;;;1.63;1.02;;;;;;;17.18;49.96;98655.25;5072910;28;20066;-74
2021/09/10 06:35:27;;;;;;;3.40;1.40;;;;;;;17.10;50.60;98671.53;5072559;28;20450;-75
2021/09/10 06:37:53;;;;;;;2.78;1.05;;;;;;;16.99;48.76;98663.84;5055917;28;20082;-75
2021/09/10 06:40:19;;;;;;;3.33;1.00;;;;;;;17.08;49.10;98665.47;5055930;28;20139;-74
2021/09/10 06:42:46;;;;;;;4.40;1.40;;;;;;;17.11;49.81;98673.22;5039444;28;20055;-74
2021/09/10 06:45:12;;;;;;;1.70;1.20;;;;;;;17.14;49.47;98672.84;5073422;28;20052;-75
2021/09/10 06:47:38;;;;;;;1.27;1.08;;;;;;;17.02;48.71;98668.91;5072557;28;20044;-75
2021/09/10 06:50:09;;;;;;;5.80;1.20;;;;;;;17.09;49.36;98666.31;5072687;28;20040;-75
2021/09/10 06:52:39;;;;;;;1.00;1.00;;;;;;;17.45;49.53;98658.38;5072663;28;20045;-75
2021/09/10 06:55:05;;;;;;;5.00;1.50;;;;;;;17.69;48.92;98660.03;5038840;28;20044;-76
2021/09/10 06:57:31;;;;;;;1.02;1.02;;;;;;;17.80;48.03;98680.41;5055079;28;20590;-74
2021/09/10 06:59:57;;;;;;;1.38;1.00;;;;;;;17.79;48.40;98665.16;5022575;28;20045;-75
2021/09/10 07:02:23;;;;;;;1.30;1.10;;;;;;;17.81;45.65;98663.97;5055423;28;20036;-75
2021/09/10 07:04:49;;;;;;;0.95;0.90;;;;;;;17.73;45.88;98672.97;5055303;28;20431;-74
2021/09/10 07:07:15;;;;;;;0.90;0.90;;;;;;;17.69;45.92;98663.56;5073294;28;20040;-74
2021/09/10 07:09:41;;;;;;;2.92;0.85;;;;;;;17.82;46.72;98662.09;5072130;28;20040;-74
2021/09/10 07:12:08;;;;;;;1.48;0.80;;;;;;;18.12;46.16;98662.94;5071976;28;20089;-74
2021/09/10 07:14:34;;;;;;;1.52;1.20;;;;;;;18.05;44.82;98664.72;5072296;28;20556;-76
2021/09/10 07:17:00;;;;;;;4.68;1.00;;;;;;;17.91;45.40;98658.31;5054889;28;20456;-74
2021/09/10 07:19:26;;;;;;;1.10;1.00;;;;;;;17.96;45.74;98677.50;5055212;28;20045;-76
2021/09/10 07:21:52;;;;;;;1.98;1.00;;;;;;;17.91;46.34;98669.13;5071567;28;20056;-75
2021/09/10 07:24:17;;;;;;;2.72;1.02;;;;;;;17.97;46.16;98668.34;5071406;28;20127;-76
2021/09/10 07:26:43;;;;;;;5.38;1.20;;;;;;;17.76;46.41;98682.63;5038481;28;20053;-74
2021/09/10 07:29:09;;;;;;;0.90;0.90;;;;;;;17.70;46.24;98677.91;5071626;28;20050;-74
2021/09/10 07:31:35;;;;;;;3.35;1.00;;;;;;;17.54;46.22;98678.09;5038253;28;20101;-75
2021/09/10 07:34:01;;;;;;;1.55;1.10;;;;;;;17.53;45.64;98655.63;5071488;28;20044;-75
2021/09/10 07:36:27;;;;;;;6.88;0.98;;;;;;;17.99;45.22;98660.91;5071545;28;20052;-75
2021/09/10 07:38:53;;;;;;;1.33;0.98;;;;;;;18.29;43.99;98650.06;5055470;28;20150;-75
2021/09/10 07:41:18;;;;;;;3.17;1.27;;;;;;;18.33;43.42;98652.19;5054915;28;20127;-75
2021/09/10 07:43:45;;;;;;;1.00;0.90;;;;;;;18.40;43.47;98646.88;5055190;28;20044;-74
2021/09/10 07:46:11;;;;;;;2.83;1.25;;;;;;;18.55;43.37;98642.25;5071957;28;20048;-74
2021/09/10 07:48:36;;;;;;;5.13;1.77;;;;;;;18.60;43.80;98630.84;5072671;28;20105;-75
2021/09/10 07:51:02;;;;;;;2.35;0.70;;;;;;;18.62;43.00;98651.31;5071332;28;20040;-75
2021/09/10 07:53:28;;;;;;;1.10;1.00;;;;;;;18.11;43.59;98663.97;5054872;28;20059;-76
2021/09/10 07:55:54;;;;;;;2.20;1.30;;;;;;;17.71;44.60;98657.97;5038043;28;20055;-75
2021/09/10 07:58:20;;;;;;;3.92;1.00;;;;;;;17.30;46.27;98668.31;5038302;28;20117;-76
2021/09/10 08:00:46;;;;;;;4.68;1.27;;;;;;;16.97;48.31;98657.81;5071010;28;20044;-74
2021/09/10 08:03:12;;;;;;;3.50;1.30;;;;;;;16.94;48.82;98650.91;5071127;28;20049;-76
2021/09/10 08:05:39;;;;;;;2.13;1.40;;;;;;;16.91;48.11;98675.53;5037989;28;20048;-75
2021/09/10 08:08:05;;;;;;;1.25;1.25;;;;;;;16.93;48.30;98680.78;5071371;28;20075;-75
2021/09/10 08:10:31;;;;;;;1.20;1.10;;;;;;;16.79;49.03;98685.09;5054504;28;20056;-74
2021/09/10 08:12:57;;;;;;;2.92;1.20;;;;;;;16.72;49.47;98665.19;5038561;28;20384;-74
2021/09/10 08:15:23;;;;;;;1.48;1.00;;;;;;;16.79;48.65;98676.16;5054680;28;20086;-75
2021/09/10 08:17:49;;;;;;;2.72;1.15;;;;;;;16.78;48.38;98706.88;5071078;28;20124;-74
2021/09/10 08:20:15;;;;;;;4.53;1.30;;;;;;;16.58;48.71;98680.28;5072271;28;20047;-74
2021/09/10 08:22:41;;;;;;;2.15;0.95;;;;;;;16.60;48.11;98680.94;5021763;28;20053;-74
2021/09/10 08:25:08;;;;;;;0.90;0.90;;;;;;;16.60;47.77;98691.75;5054338;28;20143;-75
2021/09/10 08:27:33;;;;;;;1.65;1.30;;;;;;;16.55;47.92;98664.47;5054524;28;20449;-75
2021/09/10 08:30:00;;;;;;;2.55;1.20;;;;;;;16.56;47.67;98651.81;5054512;28;20040;-76
2021/09/10 08:32:26;;;;;;;1.08;0.98;;;;;;;16.68;47.70;98645.81;5054916;28;20044;-77
2021/09/10 08:34:52;;;;;;;2.03;1.20;;;;;;;16.73;48.25;98664.16;5054813;28;20036;-75
2021/09/10 08:37:18;;;;;;;2.80;1.00;;;;;;;16.67;47.99;98667.59;5038023;28;20040;-76
2021/09/10 08:39:44;;;;;;;1.10;1.10;;;;;;;16.55;48.63;98671.69;5054404;28;20549;-75
2021/09/10 08:42:10;;;;;;;1.48;1.00;;;;;;;16.55;48.82;98683.34;5054013;28;20040;-75
2021/09/10 08:44:40;;;;;;;1.55;1.20;;;;;;;16.71;48.16;98699.44;5071331;28;20128;-75
2021/09/10 08:47:06;;;;;;;2.05;1.05;;;;;;;16.54;47.55;98695.13;5037823;28;20090;-75
2021/09/10 08:49:35;;;;;;;1.15;1.00;;;;;;;16.32;47.66;98688.66;5070756;28;20048;-75
2021/09/10 08:52:01;;;;;;;0.90;0.90;;;;;;;16.31;48.50;98707.72;5070811;28;20381;-74
2021/09/10 08:54:28;;;;;;;1.10;1.00;;;;;;;16.40;48.35;98717.50;5071058;28;20040;-75
2021/09/10 08:56:54;;;;;;;0.95;0.95;;;;;;;16.40;47.94;98682.41;5054208;28;20052;-75
2021/09/10 08:59:20;;;;;;;0.98;0.98;;;;;;;16.41;48.63;98700.28;5037662;28;20102;-75
2021/09/10 09:01:50;;;;;;;2.83;1.00;;;;;;;16.56;47.63;98685.03;5070492;28;20056;-75
2021/09/10 09:04:17;;;;;;;1.40;1.00;;;;;;;16.72;47.80;98690.31;5037567;28;20415;-75
2021/09/10 09:06:43;;;;;;;2.45;1.15;;;;;;;16.75;47.60;98700.78;5020901;28;20066;-75
2021/09/10 09:09:09;;;;;;;1.85;1.00;;;;;;;16.89;48.06;98695.66;5054348;28;20102;-75
2021/09/10 09:11:35;;;;;;;4.13;1.08;;;;;;;17.07;47.53;98679.97;5070854;28;20594;-76
2021/09/10 09:14:04;;;;;;;2.80;1.15;;;;;;;17.28;46.60;98689.28;5053940;28;20044;-76
2021/09/10 09:16:30;;;;;;;5.95;1.00;;;;;;;17.39;46.79;98687.00;5054241;28;20041;-74
2021/09/10 09:19:00;;;;;;;2.20;1.10;;;;;;;17.46;46.79;98703.31;5070383;28;20542;-75
2021/09/10 09:21:27;;;;;;;1.52;1.00;;;;;;;17.22;46.82;98701.66;5037491;28;20050;-77
2021/09/10 09:23:55;;;;;;;2.13;1.08;;;;;;;16.82;47.05;98692.00;5070411;28;20041;-75
2021/09/10 09:26:24;;;;;;;4.60;1.20;;;;;;;16.70;47.33;98697.75;5054100;28;20037;-75
2021/09/10 09:29:21;;;;;;;1.63;1.05;;;;;;;16.49;48.75;98721.81;5054669;28;20081;-75
2021/09/10 09:31:57;;;;;;;2.28;1.23;;;;;;;16.35;47.87;98703.66;5074345;28;20048;-75
2021/09/10 09:34:45;;;;;;;2.88;1.42;;;;;;;16.17;50.00;98720.94;5075125;28;20080;-76
2021/09/10 09:37:12;;;;;;;2.28;1.15;;;;;;;16.13;50.66;98706.09;5073868;28;20044;-74
2021/09/10 09:39:55;;;;;;;1.02;1.00;;;;;;;16.03;50.98;98700.91;5057190;28;20055;-74
2021/09/10 09:42:27;;;;;;;0.93;0.85;;;;;;;16.04;45.78;98723.31;5057415;28;20132;-76
2021/09/10 09:45:11;;;;;;;1.67;0.77;;;;;;;15.55;43.90;98708.06;5040625;28;20047;-75
2021/09/10 09:47:38;;;;;;;0.60;0.60;;;;;;;15.26;43.87;98707.72;5056873;28;20491;-75
2021/09/10 09:50:11;;;;;;;1.30;0.60;;;;;;;15.21;44.53;98732.47;5073561;28;20056;-74
2021/09/10 09:52:37;;;;;;;0.70;0.70;;;;;;;15.24;45.57;98716.00;5023742;28;20040;-76
2021/09/10 09:55:04;;;;;;;1.17;0.70;;;;;;;15.29;44.96;98713.63;5074226;28;20134;-76
2021/09/10 09:57:30;;;;;;;1.80;0.80;;;;;;;15.51;45.89;98722.88;5056804;28;20040;-75
2021/09/10 09:59:57;;;;;;;1.95;0.93;;;;;;;15.29;46.57;98719.00;5057540;28;20047;-76
2021/09/10 10:02:23;;;;;;;1.33;0.70;;;;;;;15.13;47.43;98731.63;5073607;28;20068;-76
2021/09/10 10:04:49;;;;;;;3.33;0.70;;;;;;;15.01;48.92;98725.72;5023847;28;20430;-74
2021/09/10 10:07:16;;;;;;;1.02;0.90;;;;;;;15.04;49.04;98737.00;5040159;28;20052;-74
2021/09/10 10:09:43;;;;;;;0.80;0.75;;;;;;;15.01;50.25;98752.66;5039904;28;20056;-76
2021/09/10 10:12:09;;;;;;;2.58;0.70;;;;;;;14.74;51.42;98735.78;5073509;28;20048;-76
2021/09/10 10:14:39;;;;;;;0.80;0.80;;;;;;;14.55;52.64;98719.88;5056804;28;20078;-76
2021/09/10 10:17:26;;;;;;;0.70;0.70;;;;;;;14.58;53.45;98716.88;5073275;28;20131;-75
2021/09/10 10:19:52;;;;;;;0.85;0.82;;;;;;;14.64;54.37;98728.84;5042029;28;20403;-75
2021/09/10 10:22:34;;;;;;;5.20;1.13;;;;;;;14.90;53.71;98712.59;5039872;28;20043;-75
2021/09/10 10:25:00;;;;;;;3.60;1.00;;;;;;;14.67;54.59;98733.88;5072896;28;20055;-76
2021/09/10 10:27:36;;;;;;;1.15;1.05;;;;;;;14.51;55.77;98735.50;5073055;28;20045;-76
2021/09/10 10:30:19;;;;;;;1.60;0.90;;;;;;;14.48;56.13;98745.72;5023658;28;20185;-76
2021/09/10 10:32:49;;;;;;;1.05;1.05;;;;;;;14.43;56.41;98726.53;5073079;28;20462;-75
2021/09/10 10:35:30;;;;;;;1.20;1.10;;;;;;;14.39;56.35;98704.50;5022923;28;20499;-76
2021/09/10 10:38:01;;;;;;;1.23;1.10;;;;;;;14.48;56.70;98713.44;5056179;28;20450;-74
2021/09/10 10:40:28;;;;;;;1.98;1.10;;;;;;;14.60;56.14;98711.34;5073695;28;20131;-74
2021/09/10 10:42:54;;;;;;;1.85;1.00;;;;;;;14.44;56.30;98702.19;5055935;28;20496;-75
2021/09/10 10:45:41;;;;;;;1.30;1.20;;;;;;;14.41;56.30;98726.72;5055844;28;20051;-75
2021/09/10 10:48:29;;;;;;;1.05;1.00;;;;;;;14.32;56.58;98731.19;5039065;28;20068;-74
2021/09/10 10:51:24;;;;;;;2.92;1.50;;;;;;;14.30;56.85;98721.63;5072498;28;20546;-75
2021/09/10 10:53:53;;;;;;;1.27;1.13;;;;;;;14.38;57.07;98720.81;5055791;28;20052;-75
2021/09/10 10:56:25;;;;;;;1.30;1.20;;;;;;;14.63;56.62;98716.38;5072541;28;20119;-75
2021/09/10 10:59:13;;;;;;;0.90;0.90;;;;;;;14.56;57.17;98700.91;5055566;28;20072;-75
2021/09/10 11:02:17;;;;;;;0.90;0.90;;;;;;;14.61;56.88;98707.66;5073059;28;20075;-76
2021/09/10 11:04:50;;;;;;;1.77;1.38;;;;;;;14.55;57.03;98695.69;5072168;28;20055;-75
2021/09/10 11:07:23;;;;;;;2.28;1.20;;;;;;;14.56;56.61;98700.91;5039017;28;20042;-76
2021/09/10 11:10:19;;;;;;;1.23;1.00;;;;;;;14.60;56.37;98705.97;5039124;28;20519;-75
2021/09/10 11:12:46;;;;;;;2.47;1.38;;;;;;;14.64;55.76;98680.44;5071434;28;20049;-75
2021/09/10 11:15:32;;;;;;;1.25;1.15;;;;;;;14.65;55.87;98700.94;5055386;28;20052;-76
2021/09/10 11:18:05;;;;;;;1.40;1.13;;;;;;;14.46;56.26;98678.66;5055659;28;20048;-74
2021/09/10 11:20:31;;;;;;;2.60;1.27;;;;;;;14.52;56.35;98686.13;5038800;28;20040;-75
2021/09/10 11:22:57;;;;;;;1.63;1.23;;;;;;;14.42;56.92;98681.84;5071798;28;20048;-75
2021/09/10 11:25:23;;;;;;;1.25;1.15;;;;;;;14.42;56.65;98693.44;5071653;28;20066;-74
2021/09/10 11:27:49;;;;;;;1.95;1.40;;;;;;;14.43;56.71;98683.50;5038437;28;20438;-75
2021/09/10 11:30:15;;;;;;;2.80;1.38;;;;;;;14.36;56.89;98669.03;5055226;28;20048;-75
2021/09/10 11:32:41;;;;;;;0.95;0.95;;;;;;;14.44;56.60;98679.81;5071531;28;20044;-74
2021/09/10 11:35:23;;;;;;;1.45;1.20;;;;;;;14.30;56.74;98668.69;5055230;28;20503;-76